Time;durP1;ratioP1;P1;durP2;ratioP2;P2;SDS_P1;SDS_P2;PMS_P1;PMS_P2;Temp;Humidity;BMP_temperature;BMP_pressure;BME280_temperature;BME280_humidity;BME280_pressure;Samples;Min_cycle;Max_cycle;Signal;HPM_P1;HPM_P2
2021/06/20 00:00:25;;;;;;;29.40;24.85;;;17.10;88.80;;;;;;5036012;28;20193;-87
2021/06/20 00:02:52;;;;;;;29.15;25.90;;;17.00;89.00;;;;;;5053808;28;20226;-87
2021/06/20 00:05:25;;;;;;;31.05;25.00;;;17.00;89.20;;;;;;5053778;28;20163;-86
2021/06/20 00:07:51;;;;;;;31.60;24.50;;;17.00;89.30;;;;;;5036011;28;20175;-87
2021/06/20 00:10:26;;;;;;;28.52;25.02;;;16.90;89.40;;;;;;5035812;28;20176;-86
2021/06/20 00:12:53;;;;;;;33.50;25.42;;;16.80;89.60;;;;;;5035584;28;20211;-86
2021/06/20 00:15:21;;;;;;;36.10;26.52;;;16.70;89.90;;;;;;5053619;28;20176;-86
2021/06/20 00:17:47;;;;;;;29.33;25.88;;;16.70;90.10;;;;;;5053476;28;20191;-86
2021/06/20 00:20:15;;;;;;;36.70;27.33;;;16.70;90.20;;;;;;5035731;28;20632;-86
2021/06/20 00:22:41;;;;;;;38.85;28.50;;;16.80;90.20;;;;;;5035554;28;20191;-87
2021/06/20 00:25:07;;;;;;;32.80;27.83;;;16.70;90.30;;;;;;5053520;28;20251;-86
2021/06/20 00:27:33;;;;;;;35.70;30.13;;;16.80;90.30;;;;;;5035488;28;20176;-86
2021/06/20 00:29:59;;;;;;;39.92;29.70;;;16.80;90.40;;;;;;5035489;28;20697;-87
2021/06/20 00:32:25;;;;;;;39.15;27.27;;;16.80;90.50;;;;;;5035331;28;20191;-86
2021/06/20 00:34:51;;;;;;;35.33;30.88;;;16.80;90.60;;;;;;5053383;28;20172;-87
2021/06/20 00:37:18;;;;;;;38.90;29.23;;;16.80;90.80;;;;;;5053349;28;20168;-87
2021/06/20 00:39:43;;;;;;;41.15;29.45;;;16.80;90.70;;;;;;5053302;28;20168;-87
2021/06/20 00:42:09;;;;;;;37.78;30.38;;;16.80;90.80;;;;;;5053110;28;20199;-86
2021/06/20 00:44:49;;;;;;;36.47;30.75;;;16.80;90.90;;;;;;5035372;28;20550;-86
2021/06/20 00:47:16;;;;;;;43.92;31.13;;;16.90;91.10;;;;;;5035324;28;20275;-86
2021/06/20 00:49:41;;;;;;;36.45;30.90;;;16.80;91.20;;;;;;5035311;28;20628;-87
2021/06/20 00:52:07;;;;;;;40.97;32.05;;;16.90;91.30;;;;;;5053027;28;20310;-87
2021/06/20 00:54:34;;;;;;;40.25;30.92;;;16.90;91.40;;;;;;5053017;28;20204;-87
2021/06/20 00:57:00;;;;;;;33.50;28.77;;;17.00;91.40;;;;;;5053049;28;20167;-86
2021/06/20 00:59:27;;;;;;;42.30;31.50;;;17.00;91.40;;;;;;5035327;28;20180;-87
2021/06/20 01:01:53;;;;;;;39.85;31.50;;;17.10;91.40;;;;;;5035216;28;20226;-86
2021/06/20 01:04:18;;;;;;;44.60;31.50;;;17.10;91.40;;;;;;5053014;28;20215;-86
2021/06/20 01:06:44;;;;;;;48.55;31.45;;;17.10;91.50;;;;;;5052966;28;20180;-86
2021/06/20 01:09:10;;;;;;;36.13;30.48;;;17.10;91.40;;;;;;5035127;28;20539;-87
2021/06/20 01:11:36;;;;;;;35.00;29.27;;;17.20;91.40;;;;;;5052694;28;20299;-86
2021/06/20 01:14:02;;;;;;;39.63;30.67;;;17.20;91.30;;;;;;5052882;28;20191;-87
2021/06/20 01:16:29;;;;;;;37.50;29.48;;;17.20;91.20;;;;;;5052916;28;20184;-87
2021/06/20 01:18:56;;;;;;;40.78;28.20;;;17.20;91.20;;;;;;5035092;28;20203;-86
2021/06/20 01:21:22;;;;;;;47.10;29.92;;;17.20;91.20;;;;;;5052823;28;20184;-87
2021/06/20 01:23:48;;;;;;;45.90;28.63;;;17.20;91.20;;;;;;5035021;28;20246;-87
2021/06/20 01:26:14;;;;;;;37.60;27.67;;;17.20;91.10;;;;;;5052852;28;20640;-87
2021/06/20 01:28:51;;;;;;;40.05;28.42;;;17.20;91.20;;;;;;5052823;28;20230;-86
2021/06/20 01:31:18;;;;;;;47.17;29.67;;;17.20;91.20;;;;;;5038013;28;20203;-87
2021/06/20 01:33:45;;;;;;;49.67;28.17;;;17.20;91.20;;;;;;5038725;28;20206;-87
2021/06/20 01:36:12;;;;;;;50.28;28.17;;;17.30;91.20;;;;;;5038739;28;20214;-87
2021/06/20 01:38:39;;;;;;;45.28;27.58;;;17.30;91.20;;;;;;5056665;28;20164;-87
2021/06/20 01:41:06;;;;;;;44.78;27.08;;;17.30;91.10;;;;;;5038582;28;20648;-87
2021/06/20 01:43:32;;;;;;;45.97;26.80;;;17.30;91.10;;;;;;5056452;28;20176;-87
2021/06/20 01:45:57;;;;;;;47.45;29.63;;;17.30;91.30;;;;;;5056412;28;20636;-87
2021/06/20 01:48:23;;;;;;;49.28;27.85;;;17.20;91.60;;;;;;5056408;28;20308;-86
2021/06/20 01:50:49;;;;;;;56.65;29.33;;;17.20;91.80;;;;;;5056282;28;20675;-87
2021/06/20 01:53:16;;;;;;;50.35;30.60;;;17.20;92.00;;;;;;5038420;28;20203;-87
2021/06/20 01:55:44;;;;;;;45.63;30.67;;;17.20;92.20;;;;;;5056234;28;20161;-87
2021/06/20 01:58:12;;;;;;;50.47;31.33;;;17.30;92.20;;;;;;5038276;28;20271;-87
2021/06/20 02:00:41;;;;;;;46.75;30.70;;;17.30;92.20;;;;;;5038324;28;20656;-87
2021/06/20 02:03:15;;;;;;;55.85;32.05;;;17.30;92.30;;;;;;5038218;28;20230;-87
2021/06/20 02:05:44;;;;;;;55.80;31.33;;;17.30;92.40;;;;;;5038158;28;20187;-87
2021/06/20 02:08:11;;;;;;;51.63;31.95;;;17.30;92.60;;;;;;5056037;28;20184;-87
2021/06/20 02:10:39;;;;;;;52.83;33.10;;;17.40;92.60;;;;;;5037797;28;20176;-87
2021/06/20 02:13:05;;;;;;;51.38;34.35;;;17.50;92.70;;;;;;5038072;28;20703;-87
2021/06/20 02:15:31;;;;;;;47.50;35.30;;;17.60;92.60;;;;;;5038012;28;20197;-87
2021/06/20 02:17:57;;;;;;;52.03;35.10;;;17.70;92.50;;;;;;5055867;28;20172;-87
2021/06/20 02:20:23;;;;;;;49.03;36.25;;;17.70;92.50;;;;;;5038057;28;20176;-87
2021/06/20 02:22:51;;;;;;;51.67;35.35;;;17.80;92.40;;;;;;5037837;28;20235;-87
2021/06/20 02:25:19;;;;;;;43.20;32.30;;;17.90;92.20;;;;;;5037848;28;20652;-87
2021/06/20 02:27:47;;;;;;;47.60;35.10;;;18.00;92.10;;;;;;5037860;28;20184;-87
2021/06/20 02:30:15;;;;;;;52.50;34.78;;;18.00;92.10;;;;;;5038358;28;20536;-87
2021/06/20 02:32:41;;;;;;;53.20;35.08;;;18.10;92.10;;;;;;5055430;28;20199;-87
2021/06/20 02:35:09;;;;;;;47.58;33.13;;;18.10;92.10;;;;;;5055639;28;20229;-86
2021/06/20 02:37:35;;;;;;;54.47;35.65;;;18.10;92.00;;;;;;5037608;28;20183;-87
2021/06/20 02:40:02;;;;;;;51.05;34.33;;;18.20;92.00;;;;;;5037520;28;20176;-87
2021/06/20 02:42:28;;;;;;;46.45;34.60;;;18.20;91.80;;;;;;5036181;28;20192;-87
2021/06/20 02:44:54;;;;;;;40.50;32.17;;;18.30;91.80;;;;;;5055381;28;20171;-87
2021/06/20 02:47:19;;;;;;;45.58;33.08;;;18.40;91.70;;;;;;5127770;22;20221;-84
2021/06/20 02:49:45;;;;;;;48.17;34.97;;;18.40;91.50;;;;;;5017758;28;20177;-85
2021/06/20 02:52:14;;;;;;;42.67;32.95;;;18.50;91.40;;;;;;5035431;28;20256;-85
2021/06/20 02:54:49;;;;;;;40.08;30.70;;;18.50;91.30;;;;;;5017807;28;20266;-84
2021/06/20 02:57:22;;;;;;;41.25;30.83;;;18.60;91.20;;;;;;5035492;28;20156;-85
2021/06/20 02:59:49;;;;;;;39.88;31.73;;;18.60;91.10;;;;;;5034195;28;20211;-84
2021/06/20 03:02:15;;;;;;;44.65;31.85;;;18.70;91.00;;;;;;5035353;28;20260;-84
2021/06/20 03:04:41;;;;;;;42.53;30.23;;;18.60;91.00;;;;;;5017405;28;20181;-84
2021/06/20 03:07:07;;;;;;;46.22;31.55;;;18.70;91.00;;;;;;5017485;28;20231;-84
2021/06/20 03:09:34;;;;;;;38.17;30.42;;;18.70;91.10;;;;;;5035226;28;20179;-84
2021/06/20 03:12:01;;;;;;;37.70;28.80;;;18.70;91.00;;;;;;5034970;28;20183;-84
2021/06/20 03:14:27;;;;;;;40.78;30.92;;;18.70;90.90;;;;;;5034952;28;20193;-84
2021/06/20 03:16:52;;;;;;;39.97;29.38;;;18.70;91.00;;;;;;5017408;28;20168;-84
2021/06/20 03:19:18;;;;;;;36.13;28.15;;;18.70;91.00;;;;;;5017260;28;20199;-84
2021/06/20 03:21:44;;;;;;;43.88;29.60;;;18.70;90.90;;;;;;5017055;28;20551;-84
2021/06/20 03:24:10;;;;;;;37.10;26.83;;;18.80;90.80;;;;;;5034878;28;20671;-84
2021/06/20 03:26:36;;;;;;;37.22;28.40;;;18.80;90.80;;;;;;5034695;28;20633;-84
2021/06/20 03:29:04;;;;;;;42.60;29.83;;;18.80;90.70;;;;;;5034720;28;20664;-84
2021/06/20 03:31:30;;;;;;;32.75;28.38;;;18.80;90.60;;;;;;5017805;28;20234;-85
2021/06/20 03:33:58;;;;;;;37.47;29.70;;;18.90;90.80;;;;;;5037142;28;20607;-84
2021/06/20 03:36:24;;;;;;;35.35;29.15;;;18.90;90.70;;;;;;5016952;28;20173;-84
2021/06/20 03:38:50;;;;;;;37.50;29.60;;;18.90;90.70;;;;;;5016997;28;20200;-83
2021/06/20 03:41:16;;;;;;;37.10;28.73;;;18.90;90.70;;;;;;5016881;28;20272;-84
2021/06/20 03:43:42;;;;;;;34.45;27.83;;;18.90;90.70;;;;;;5034621;28;20181;-84
2021/06/20 03:46:09;;;;;;;36.97;28.40;;;19.00;90.60;;;;;;5016724;28;20602;-84
2021/06/20 03:48:35;;;;;;;34.58;27.83;;;19.00;90.40;;;;;;5033681;28;20270;-84
2021/06/20 03:51:01;;;;;;;30.65;27.35;;;19.00;90.50;;;;;;5034110;28;20172;-84
2021/06/20 03:53:27;;;;;;;32.38;26.75;;;19.10;90.40;;;;;;5033003;28;20258;-84
2021/06/20 03:55:53;;;;;;;34.10;26.77;;;19.10;90.40;;;;;;5015830;28;20172;-84
2021/06/20 03:58:19;;;;;;;34.75;26.95;;;19.10;90.30;;;;;;5033393;28;20564;-84
2021/06/20 04:00:44;;;;;;;34.75;27.50;;;19.20;90.20;;;;;;5033550;28;20184;-84
2021/06/20 04:03:10;;;;;;;34.13;27.67;;;19.20;90.20;;;;;;5033350;28;20183;-84
2021/06/20 04:05:35;;;;;;;32.33;26.55;;;19.20;90.10;;;;;;5033184;28;20699;-84
2021/06/20 04:08:01;;;;;;;33.80;26.35;;;19.20;90.10;;;;;;5033503;28;20228;-84
2021/06/20 04:10:27;;;;;;;35.10;27.42;;;19.30;90.10;;;;;;5033366;28;20169;-84
2021/06/20 04:12:54;;;;;;;30.98;26.52;;;19.30;90.40;;;;;;5015357;28;20200;-84
2021/06/20 04:15:19;;;;;;;31.10;25.45;;;19.30;90.10;;;;;;5033617;28;20176;-83
2021/06/20 04:17:46;;;;;;;26.52;21.80;;;19.40;90.50;;;;;;5033188;28;20189;-83
2021/06/20 04:20:12;;;;;;;25.13;19.92;;;19.40;90.20;;;;;;5034095;28;20563;-86
2021/06/20 04:22:39;;;;;;;28.30;21.05;;;19.50;90.10;;;;;;5016558;28;20528;-85
2021/06/20 04:25:06;;;;;;;19.75;17.75;;;19.50;89.80;;;;;;5033162;28;20576;-84
2021/06/20 04:27:31;;;;;;;21.38;17.58;;;19.70;89.80;;;;;;5033029;28;20195;-85
2021/06/20 04:29:57;;;;;;;22.85;17.45;;;19.70;89.70;;;;;;5032915;28;20251;-84
2021/06/20 04:32:23;;;;;;;19.85;17.88;;;19.80;89.70;;;;;;5015050;28;20230;-85
2021/06/20 04:34:48;;;;;;;22.33;16.67;;;19.90;89.70;;;;;;5032827;28;20173;-85
2021/06/20 04:37:14;;;;;;;19.05;17.10;;;19.90;89.70;;;;;;5032796;28;20168;-85
2021/06/20 04:39:39;;;;;;;21.15;18.92;;;19.90;89.80;;;;;;5033039;28;20604;-85
2021/06/20 04:42:08;;;;;;;18.38;16.38;;;19.90;90.00;;;;;;5032687;28;20172;-85
2021/06/20 04:44:43;;;;;;;24.98;19.17;;;19.90;90.10;;;;;;5015050;28;20177;-86
2021/06/20 04:49:50;;;;;;;29.33;19.95;;;20.00;90.60;;;;;;5147852;27;20523;-85
2021/06/20 04:52:16;;;;;;;27.63;19.08;;;19.90;90.90;;;;;;5131776;28;20182;-84
2021/06/20 04:54:50;;;;;;;27.35;18.63;;;19.90;91.10;;;;;;5131932;28;20168;-85
2021/06/20 04:57:17;;;;;;;26.77;17.83;;;19.90;91.30;;;;;;5130240;28;20161;-85
2021/06/20 04:59:43;;;;;;;23.48;18.10;;;19.90;91.40;;;;;;5131641;28;20165;-85
2021/06/20 05:02:09;;;;;;;23.88;20.27;;;19.90;91.40;;;;;;5131462;28;20165;-85
2021/06/20 05:04:35;;;;;;;24.92;17.70;;;19.90;91.60;;;;;;5131558;28;20165;-84
2021/06/20 05:07:01;;;;;;;21.17;18.42;;;19.90;91.60;;;;;;5131381;28;20242;-85
2021/06/20 05:09:27;;;;;;;27.48;18.45;;;20.00;91.60;;;;;;5130136;28;20200;-85
2021/06/20 05:11:53;;;;;;;20.90;15.95;;;19.90;91.60;;;;;;5131409;28;20176;-85
2021/06/20 05:14:18;;;;;;;16.60;13.15;;;19.90;91.60;;;;;;5130191;28;20177;-86
2021/06/20 05:16:44;;;;;;;14.60;13.07;;;20.00;91.60;;;;;;5130243;28;20208;-85
2021/06/20 05:19:09;;;;;;;17.40;11.48;;;20.00;91.50;;;;;;5131174;28;20253;-86
2021/06/20 05:21:35;;;;;;;14.13;10.20;;;19.90;91.40;;;;;;5131106;28;20214;-85
2021/06/20 05:24:02;;;;;;;16.83;10.50;;;19.90;91.10;;;;;;5131063;28;20538;-85
2021/06/20 05:26:28;;;;;;;15.98;10.68;;;20.00;91.00;;;;;;5129723;28;20177;-85
2021/06/20 05:28:54;;;;;;;16.63;9.93;;;19.90;91.10;;;;;;5130871;28;20204;-85
2021/06/20 05:31:19;;;;;;;17.63;9.60;;;19.90;91.10;;;;;;5130907;28;20637;-85
2021/06/20 05:33:45;;;;;;;14.05;10.00;;;19.90;91.20;;;;;;5130904;28;20219;-85
2021/06/20 05:36:10;;;;;;;13.27;7.95;;;19.80;91.50;;;;;;5130889;28;20248;-86
2021/06/20 05:38:36;;;;;;;17.35;7.72;;;19.80;91.40;;;;;;5129516;28;20588;-85
2021/06/20 05:41:02;;;;;;;11.55;7.40;;;19.70;91.30;;;;;;5130702;28;20226;-85
2021/06/20 05:43:28;;;;;;;12.70;6.60;;;19.80;91.30;;;;;;5130713;28;20533;-85
2021/06/20 05:45:53;;;;;;;12.13;5.30;;;19.80;91.10;;;;;;5129411;28;20192;-85
2021/06/20 05:48:19;;;;;;;12.95;5.45;;;19.70;91.10;;;;;;5130326;28;20205;-85
2021/06/20 05:50:45;;;;;;;9.45;5.43;;;19.70;91.00;;;;;;5129224;28;20189;-85
2021/06/20 05:53:11;;;;;;;7.00;4.75;;;19.70;90.90;;;;;;5130570;28;20692;-85
2021/06/20 05:55:37;;;;;;;9.73;5.55;;;19.70;90.70;;;;;;5130510;28;20192;-85
2021/06/20 05:58:03;;;;;;;6.80;4.22;;;19.70;90.80;;;;;;5131037;28;20672;-85
2021/06/20 06:00:28;;;;;;;7.90;3.97;;;19.60;90.70;;;;;;5121845;28;20174;-85
2021/06/20 06:02:58;;;;;;;8.85;3.55;;;19.60;90.80;;;;;;5115940;28;20645;-84
2021/06/20 06:05:23;;;;;;;6.80;3.55;;;19.60;90.80;;;;;;5117079;28;20173;-85
2021/06/20 06:07:49;;;;;;;8.10;3.55;;;19.60;91.00;;;;;;5116560;28;20589;-85
2021/06/20 06:10:15;;;;;;;5.78;3.53;;;19.50;91.10;;;;;;5116478;28;20162;-85
2021/06/20 06:12:40;;;;;;;9.25;4.32;;;19.50;91.30;;;;;;5116491;28;20546;-85
2021/06/20 06:15:07;;;;;;;5.20;3.10;;;19.40;91.40;;;;;;5116359;28;20676;-85
2021/06/20 06:17:32;;;;;;;8.85;2.88;;;19.50;91.20;;;;;;5116899;28;20261;-85
2021/06/20 06:19:58;;;;;;;7.30;3.25;;;19.50;91.10;;;;;;5116574;28;20228;-85
2021/06/20 06:22:24;;;;;;;6.18;2.95;;;19.50;90.90;;;;;;5115056;28;20219;-85
2021/06/20 06:24:51;;;;;;;6.13;3.25;;;19.50;91.00;;;;;;5116179;28;20162;-85
2021/06/20 06:27:17;;;;;;;5.18;2.97;;;19.50;90.90;;;;;;5116386;28;20646;-84
2021/06/20 06:29:43;;;;;;;6.93;2.67;;;19.50;90.80;;;;;;5116338;28;20677;-84
2021/06/20 06:32:10;;;;;;;8.85;3.15;;;19.50;90.70;;;;;;5116505;28;20656;-85
2021/06/20 06:34:37;;;;;;;5.82;3.28;;;19.50;90.70;;;;;;5116045;28;20200;-85
2021/06/20 06:37:03;;;;;;;7.43;3.10;;;19.60;90.80;;;;;;5115944;28;20189;-85
2021/06/20 06:39:30;;;;;;;7.40;3.08;;;19.60;90.70;;;;;;5115988;28;20170;-86
2021/06/20 06:41:56;;;;;;;5.63;2.95;;;19.60;90.80;;;;;;5115949;28;20700;-85
2021/06/20 06:44:22;;;;;;;5.55;2.70;;;19.60;90.80;;;;;;5116527;28;20300;-84
2021/06/20 06:46:48;;;;;;;5.22;2.97;;;19.60;90.80;;;;;;5114621;28;20174;-85
2021/06/20 06:49:14;;;;;;;9.50;3.42;;;19.70;91.00;;;;;;5114271;28;20669;-85
2021/06/20 06:51:40;;;;;;;4.95;3.30;;;19.70;91.10;;;;;;5116148;28;20166;-85
2021/06/20 06:54:05;;;;;;;4.05;2.80;;;19.70;90.90;;;;;;5115023;28;20593;-85
2021/06/20 06:56:31;;;;;;;4.82;2.75;;;19.70;91.00;;;;;;5116980;28;20165;-85
2021/06/20 06:58:59;;;;;;;6.53;2.75;;;19.80;91.00;;;;;;5116145;28;20214;-85
2021/06/20 07:01:24;;;;;;;6.18;2.88;;;19.80;90.70;;;;;;5116118;28;20166;-85
2021/06/20 07:03:52;;;;;;;6.70;3.17;;;19.90;90.90;;;;;;5117767;28;20188;-85
2021/06/20 07:06:19;;;;;;;8.45;3.58;;;20.00;90.90;;;;;;5115659;28;20170;-85
2021/06/20 07:08:45;;;;;;;6.90;3.03;;;20.00;90.90;;;;;;5114088;28;20233;-84
2021/06/20 07:11:10;;;;;;;13.50;3.80;;;20.20;91.00;;;;;;5113485;28;20554;-85
2021/06/20 07:13:36;;;;;;;7.57;3.53;;;20.20;90.90;;;;;;5114473;28;20173;-85
2021/06/20 07:16:02;;;;;;;4.03;3.00;;;20.30;90.90;;;;;;5115598;28;20171;-85
2021/06/20 07:18:27;;;;;;;8.40;3.72;;;20.40;90.90;;;;;;5115455;28;20280;-85
2021/06/20 07:20:53;;;;;;;6.10;3.35;;;20.50;91.60;;;;;;5115396;28;20166;-85
2021/06/20 07:23:18;;;;;;;5.30;2.80;;;20.70;91.40;;;;;;5115471;28;20725;-85
2021/06/20 07:25:44;;;;;;;8.80;3.40;;;20.60;90.60;;;;;;5116016;28;20583;-85
2021/06/20 07:28:10;;;;;;;7.47;3.33;;;20.70;90.80;;;;;;5116240;28;20669;-85
2021/06/20 07:30:35;;;;;;;9.60;3.10;;;20.80;90.60;;;;;;5115950;28;20218;-85
2021/06/20 07:33:01;;;;;;;7.97;3.50;;;20.80;89.90;;;;;;5115360;28;20174;-85
2021/06/20 07:35:27;;;;;;;6.93;3.30;;;20.80;89.70;;;;;;5115133;28;20162;-84
2021/06/20 07:37:53;;;;;;;8.93;3.47;;;20.90;90.00;;;;;;5115240;28;20613;-84
2021/06/20 07:40:19;;;;;;;13.18;3.55;;;21.00;89.10;;;;;;5115109;28;20239;-84
2021/06/20 07:42:46;;;;;;;8.48;3.22;;;21.00;89.10;;;;;;5115094;28;20200;-84
2021/06/20 07:45:14;;;;;;;6.55;3.58;;;21.10;89.00;;;;;;5114294;28;20238;-84
2021/06/20 07:47:41;;;;;;;8.13;3.67;;;21.20;88.70;;;;;;5113258;28;20202;-85
2021/06/20 07:50:10;;;;;;;7.05;3.45;;;21.20;88.10;;;;;;5113577;28;20615;-85
2021/06/20 07:52:37;;;;;;;12.52;3.45;;;21.20;87.60;;;;;;5113741;28;20174;-84
2021/06/20 07:55:04;;;;;;;9.00;3.72;;;21.20;87.50;;;;;;5114936;28;20166;-85
2021/06/20 07:57:30;;;;;;;15.55;4.63;;;21.30;88.60;;;;;;5113580;28;20695;-85
2021/06/20 07:59:56;;;;;;;11.38;3.97;;;21.40;88.10;;;;;;5114740;28;20170;-85
2021/06/20 08:02:21;;;;;;;9.05;3.67;;;21.50;87.50;;;;;;5115984;28;20234;-85
2021/06/20 08:04:47;;;;;;;9.10;3.72;;;21.60;87.80;;;;;;5118962;28;20162;-84
2021/06/20 08:07:14;;;;;;;7.47;4.20;;;21.60;87.00;;;;;;5119374;28;20177;-85
2021/06/20 08:09:40;;;;;;;8.13;3.75;;;21.50;86.80;;;;;;5117485;28;20261;-84
2021/06/20 08:12:08;;;;;;;8.13;3.80;;;21.60;87.30;;;;;;5117178;28;20189;-84
2021/06/20 08:14:34;;;;;;;10.10;3.80;;;21.70;86.60;;;;;;5114613;28;20166;-87
2021/06/20 08:17:00;;;;;;;13.70;4.53;;;21.60;86.20;;;;;;5113995;28;20691;-85
2021/06/20 08:19:26;;;;;;;10.40;4.35;;;21.60;86.80;;;;;;5114438;28;20186;-84
2021/06/20 08:21:51;;;;;;;9.10;4.30;;;21.50;86.10;;;;;;5112839;28;20645;-85
2021/06/20 08:24:17;;;;;;;12.05;4.50;;;21.50;86.20;;;;;;5113887;28;20178;-85
2021/06/20 08:26:45;;;;;;;10.85;3.80;;;21.50;86.00;;;;;;5114085;28;20166;-86
2021/06/20 08:29:11;;;;;;;14.05;4.72;;;21.60;85.20;;;;;;5112764;28;20290;-85
2021/06/20 08:31:37;;;;;;;8.85;4.10;;;21.50;86.50;;;;;;5114315;28;20165;-85
2021/06/20 08:34:02;;;;;;;9.63;4.15;;;21.50;86.20;;;;;;5114067;28;20685;-85
2021/06/20 08:36:28;;;;;;;9.10;4.40;;;21.50;86.60;;;;;;5114372;28;20170;-85
2021/06/20 08:38:55;;;;;;;9.23;4.30;;;21.60;86.30;;;;;;5112753;28;20734;-85
2021/06/20 08:41:22;;;;;;;15.10;5.10;;;21.70;86.30;;;;;;5114089;28;20166;-85
2021/06/20 08:43:51;;;;;;;9.25;4.47;;;21.80;85.10;;;;;;5112750;28;20174;-85
2021/06/20 08:46:17;;;;;;;8.13;4.85;;;21.90;85.40;;;;;;5114009;28;20170;-85
2021/06/20 08:48:43;;;;;;;10.85;5.00;;;22.20;84.90;;;;;;5181946;22;20578;-88
2021/06/20 08:51:09;;;;;;;10.18;5.20;;;22.30;84.10;;;;;;5055311;28;20175;-88
2021/06/20 08:53:35;;;;;;;11.00;4.63;;;22.40;83.50;;;;;;5055276;28;20206;-88
2021/06/20 08:56:00;;;;;;;14.35;5.47;;;22.50;84.00;;;;;;5055562;28;20222;-88
2021/06/20 08:58:30;;;;;;;8.35;5.00;;;22.50;84.10;;;;;;5065101;28;20226;-88
2021/06/20 09:00:57;;;;;;;12.55;5.55;;;22.30;82.40;;;;;;5075518;28;20650;-88
2021/06/20 09:03:23;;;;;;;13.63;5.50;;;22.10;83.60;;;;;;5075339;28;20189;-88
2021/06/20 09:06:00;;;;;;;9.68;5.47;;;22.00;84.00;;;;;;5075141;28;20259;-89
2021/06/20 09:08:27;;;;;;;9.30;5.35;;;21.90;83.50;;;;;;5093601;28;20374;-88
2021/06/20 09:10:57;;;;;;;9.93;5.50;;;21.90;83.60;;;;;;5075198;28;20177;-88
2021/06/20 09:13:31;;;;;;;8.52;5.32;;;21.90;84.30;;;;;;5076014;28;20175;-88
2021/06/20 09:16:01;;;;;;;14.82;5.80;;;21.90;84.20;;;;;;5093225;28;20165;-89
2021/06/20 09:18:27;;;;;;;9.65;5.47;;;22.00;83.90;;;;;;5093373;28;20681;-88
2021/06/20 09:20:53;;;;;;;7.03;5.53;;;22.00;83.60;;;;;;5075052;28;20189;-88
2021/06/20 09:23:19;;;;;;;11.02;5.82;;;22.00;84.00;;;;;;5075086;28;20220;-88
2021/06/20 09:25:53;;;;;;;13.02;5.90;;;22.20;84.20;;;;;;5075116;28;20178;-88
2021/06/20 09:28:18;;;;;;;12.88;7.35;;;22.20;84.40;;;;;;5075038;28;20297;-88
2021/06/20 09:30:52;;;;;;;13.77;7.15;;;22.10;83.60;;;;;;5093107;28;20245;-88
2021/06/20 09:33:21;;;;;;;11.07;6.50;;;22.00;84.30;;;;;;5093019;28;20730;-88
2021/06/20 09:35:56;;;;;;;16.52;7.70;;;22.10;83.20;;;;;;5077263;28;20178;-88
2021/06/20 09:38:25;;;;;;;17.38;6.60;;;22.50;81.70;;;;;;5078616;28;20194;-88
2021/06/20 09:41:14;;;;;;;12.52;6.53;;;22.80;80.70;;;;;;5096823;28;20241;-88
2021/06/20 09:44:00;;;;;;;11.85;8.15;;;22.90;80.70;;;;;;5068875;28;20188;-88
2021/06/20 09:46:27;;;;;;;9.68;6.85;;;23.10;82.20;;;;;;5078322;28;20224;-88
2021/06/20 09:48:53;;;;;;;12.93;7.07;;;23.30;82.40;;;;;;5078538;28;20301;-88
2021/06/20 09:51:26;;;;;;;13.02;7.47;;;23.40;80.90;;;;;;5078342;28;20641;-88
2021/06/20 09:53:52;;;;;;;13.43;7.80;;;23.60;81.90;;;;;;5079237;28;20163;-88
2021/06/20 09:56:24;;;;;;;17.27;8.25;;;23.20;79.90;;;;;;5078429;28;20202;-88
2021/06/20 09:59:06;;;;;;;17.42;7.80;;;23.30;80.10;;;;;;5096390;28;20207;-88
2021/06/20 10:01:35;;;;;;;13.13;7.82;;;23.10;80.10;;;;;;5078808;28;20175;-88
2021/06/20 10:04:01;;;;;;;13.27;7.32;;;23.20;80.20;;;;;;5078136;28;20205;-88
2021/06/20 10:06:27;;;;;;;14.52;8.57;;;23.40;79.90;;;;;;5078199;28;20174;-88
2021/06/20 10:08:52;;;;;;;13.60;7.80;;;23.30;78.40;;;;;;5077938;28;20289;-88
2021/06/20 10:11:19;;;;;;;12.23;7.63;;;23.20;78.40;;;;;;5078068;28;20170;-88
2021/06/20 10:13:46;;;;;;;11.27;7.63;;;23.20;77.60;;;;;;5078094;28;20175;-88
2021/06/20 10:16:15;;;;;;;11.35;7.88;;;23.10;78.50;;;;;;5078013;28;20551;-88
2021/06/20 10:19:05;;;;;;;15.35;7.68;;;23.20;79.70;;;;;;5094744;28;20202;-88
2021/06/20 10:21:33;;;;;;;12.82;8.70;;;23.60;79.50;;;;;;5077878;28;20182;-88
2021/06/20 10:24:07;;;;;;;8.68;7.43;;;23.70;77.90;;;;;;5078075;28;20175;-88
2021/06/20 10:26:34;;;;;;;12.95;8.43;;;23.50;78.60;;;;;;5077907;28;20170;-88
2021/06/20 10:29:02;;;;;;;19.52;9.05;;;23.30;78.50;;;;;;5077516;28;20198;-88
2021/06/20 10:31:35;;;;;;;11.32;8.68;;;23.40;78.70;;;;;;5077611;28;20661;-88
2021/06/20 10:34:32;;;;;;;13.85;7.68;;;23.60;79.00;;;;;;5095533;28;20182;-88
2021/06/20 10:37:01;;;;;;;12.35;7.78;;;23.90;77.00;;;;;;5077468;28;20549;-89
2021/06/20 10:39:27;;;;;;;13.25;8.05;;;24.10;78.30;;;;;;5077081;28;20194;-87
2021/06/20 10:42:10;;;;;;;13.63;8.85;;;23.90;75.70;;;;;;5077056;28;20175;-86
2021/06/20 10:44:47;;;;;;;16.05;9.00;;;23.80;77.60;;;;;;5077113;28;20163;-87
2021/06/20 10:47:29;;;;;;;11.63;8.82;;;24.00;77.70;;;;;;5095122;28;20177;-86
2021/06/20 10:50:16;;;;;;;15.35;9.00;;;24.20;77.20;;;;;;5077099;28;20602;-86
2021/06/20 10:52:54;;;;;;;18.77;9.05;;;24.20;77.60;;;;;;5077172;28;20167;-86
2021/06/20 10:55:20;;;;;;;14.02;9.27;;;24.10;76.30;;;;;;5095154;28;20238;-87
2021/06/20 10:57:50;;;;;;;10.55;9.27;;;24.20;77.30;;;;;;5076975;28;20233;-87
2021/06/20 11:00:25;;;;;;;15.70;10.55;;;24.60;76.60;;;;;;5076832;28;20163;-86
2021/06/20 11:02:51;;;;;;;14.43;10.23;;;24.50;74.50;;;;;;5094848;28;20162;-87
2021/06/20 11:05:24;;;;;;;13.63;9.65;;;24.40;74.00;;;;;;5076991;28;20177;-87
2021/06/20 11:08:02;;;;;;;15.80;9.20;;;24.20;72.40;;;;;;5076556;28;20198;-87
2021/06/20 11:10:27;;;;;;;18.27;9.60;;;24.10;73.30;;;;;;5094757;28;20162;-86
2021/06/20 11:12:56;;;;;;;13.90;9.20;;;24.50;73.80;;;;;;5094688;28;20174;-86
2021/06/20 11:15:27;;;;;;;18.27;10.15;;;24.60;71.40;;;;;;5076459;28;20182;-87
2021/06/20 11:18:04;;;;;;;16.08;10.48;;;24.30;71.10;;;;;;5076448;28;20229;-87
2021/06/20 11:20:29;;;;;;;12.05;8.82;;;24.50;71.00;;;;;;5076330;28;20169;-87
2021/06/20 11:22:58;;;;;;;11.07;8.65;;;24.80;69.50;;;;;;5094669;28;20162;-86
2021/06/20 11:25:24;;;;;;;12.52;8.00;;;25.00;69.80;;;;;;5093879;28;20188;-87
2021/06/20 11:27:50;;;;;;;8.88;7.97;;;24.90;69.40;;;;;;5094480;28;20202;-87
2021/06/20 11:30:20;;;;;;;11.43;7.43;;;25.30;69.30;;;;;;5076278;28;20204;-87
2021/06/20 11:32:46;;;;;;;12.88;7.38;;;25.50;67.70;;;;;;5076082;28;20166;-87
2021/06/20 11:35:13;;;;;;;17.15;8.90;;;25.60;69.20;;;;;;5076088;28;20171;-87
2021/06/20 11:37:44;;;;;;;9.70;8.15;;;25.70;66.10;;;;;;5094104;28;20256;-87
2021/06/20 11:40:15;;;;;;;12.77;7.50;;;25.50;68.20;;;;;;5094253;28;20152;-87
2021/06/20 11:42:43;;;;;;;9.88;7.90;;;25.70;67.50;;;;;;5076025;28;20166;-87
2021/06/20 11:45:29;;;;;;;13.45;7.75;;;25.70;64.70;;;;;;5076006;28;20179;-87
2021/06/20 11:48:02;;;;;;;11.88;8.02;;;25.40;64.40;;;;;;5075649;28;20253;-87
2021/06/20 11:50:31;;;;;;;12.95;7.30;;;25.50;66.10;;;;;;5076282;28;20644;-87
2021/06/20 11:53:03;;;;;;;8.55;7.57;;;25.60;65.80;;;;;;5094032;28;20167;-88
2021/06/20 11:55:39;;;;;;;13.43;7.05;;;25.20;65.40;;;;;;5094209;28;20565;-87
2021/06/20 11:58:14;;;;;;;8.23;7.18;;;25.20;64.30;;;;;;5075192;28;20191;-87
2021/06/20 12:00:42;;;;;;;10.52;8.00;;;25.70;64.20;;;;;;5093879;28;20204;-87
2021/06/20 12:03:15;;;;;;;10.35;8.75;;;25.60;65.80;;;;;;5093754;28;20181;-87
2021/06/20 12:05:45;;;;;;;18.08;9.27;;;25.40;66.40;;;;;;5093801;28;20182;-86
2021/06/20 12:08:12;;;;;;;13.52;10.20;;;25.20;67.60;;;;;;5075441;28;20237;-87
2021/06/20 12:10:43;;;;;;;15.75;13.23;;;25.40;68.70;;;;;;5075510;28;20171;-87
2021/06/20 12:13:10;;;;;;;13.30;11.85;;;25.80;66.90;;;;;;5075720;28;20186;-87
2021/06/20 12:15:38;;;;;;;12.95;9.52;;;25.50;67.80;;;;;;5094026;28;20578;-87
2021/06/20 12:18:12;;;;;;;13.52;8.80;;;25.30;65.50;;;;;;5075702;28;20289;-87
2021/06/20 12:20:44;;;;;;;17.10;10.55;;;25.60;65.80;;;;;;5075680;28;20709;-87
2021/06/20 12:23:35;;;;;;;17.65;10.23;;;25.50;65.20;;;;;;5075590;28;20171;-87
2021/06/20 12:26:01;;;;;;;11.65;9.77;;;25.60;64.30;;;;;;5093769;28;20637;-86
2021/06/20 12:28:27;;;;;;;10.57;9.40;;;26.00;64.30;;;;;;5093387;28;20210;-87
2021/06/20 12:30:55;;;;;;;13.05;9.13;;;25.80;64.70;;;;;;5092267;28;20175;-87
2021/06/20 12:33:23;;;;;;;12.07;9.35;;;25.20;64.40;;;;;;5093503;28;20217;-87
2021/06/20 12:36:00;;;;;;;13.57;12.02;;;25.50;65.90;;;;;;5075428;28;20194;-86
2021/06/20 12:38:26;;;;;;;9.35;8.43;;;25.60;62.90;;;;;;5093375;28;20279;-88
2021/06/20 12:40:53;;;;;;;10.20;7.43;;;24.80;64.50;;;;;;5093428;28;20174;-87